createdAt,value
2022-12-25T00:01:18.864Z,16.98
2022-12-25T00:03:54.799Z,21.63
2022-12-25T00:06:30.264Z,19.80
2022-12-25T00:09:05.977Z,21.08
2022-12-25T00:11:42.503Z,19.38
2022-12-25T00:14:17.866Z,17.50
2022-12-25T00:16:55.421Z,17.60
2022-12-25T00:19:31.708Z,16.23
2022-12-25T00:22:07.757Z,17.42
2022-12-25T00:24:43.084Z,18.67
2022-12-25T00:27:18.733Z,18.85
2022-12-25T00:29:54.738Z,16.17
2022-12-25T00:32:32.798Z,18.58
2022-12-25T00:35:09.399Z,17.63
2022-12-25T00:37:44.972Z,17.98
2022-12-25T00:40:20.693Z,17.70
2022-12-25T00:42:57.842Z,18.33
2022-12-25T00:45:34.420Z,18.80
2022-12-25T00:48:13.234Z,20.75
2022-12-25T00:50:48.857Z,16.58
2022-12-25T00:53:25.468Z,17.75
2022-12-25T00:56:02.700Z,16.83
2022-12-25T00:58:38.017Z,19.52
2022-12-25T01:01:14.592Z,18.55
2022-12-25T01:03:53.569Z,20.10
2022-12-25T01:06:30.543Z,18.73
2022-12-25T01:09:23.167Z,15.40
2022-12-25T01:11:58.755Z,16.17
2022-12-25T01:14:35.910Z,14.45
2022-12-25T01:17:10.389Z,18.73
2022-12-25T01:19:46.905Z,21.60
2022-12-25T01:22:22.522Z,21.48
2022-12-25T01:24:57.509Z,14.82
2022-12-25T01:27:32.431Z,17.10
2022-12-25T01:30:07.075Z,15.63
2022-12-25T01:32:42.716Z,16.42
2022-12-25T01:35:20.801Z,16.05
2022-12-25T01:37:58.391Z,19.27
2022-12-25T01:40:33.767Z,17.50
2022-12-25T01:43:12.704Z,17.35
2022-12-25T01:45:55.155Z,18.77
2022-12-25T01:48:34.986Z,15.43
2022-12-25T01:51:17.961Z,21.13
2022-12-25T01:53:54.641Z,16.20
2022-12-25T01:56:32.845Z,17.08
2022-12-25T01:59:09.423Z,17.17
2022-12-25T02:01:45.059Z,17.63
2022-12-25T02:04:26.435Z,17.42
2022-12-25T02:07:04.387Z,15.88
2022-12-25T02:09:41.290Z,19.05
2022-12-25T02:12:22.387Z,19.35
2022-12-25T02:15:05.339Z,16.92
2022-12-25T02:17:46.429Z,18.05
2022-12-25T02:20:44.702Z,17.83
2022-12-25T02:23:52.746Z,18.55
2022-12-25T02:26:42.065Z,17.25
2022-12-25T02:29:27.793Z,17.70
2022-12-25T02:32:09.969Z,17.38
2022-12-25T02:34:52.095Z,16.42
2022-12-25T02:37:35.752Z,15.60
2022-12-25T02:40:19.022Z,17.50
2022-12-25T02:43:17.201Z,17.92
2022-12-25T02:46:14.044Z,14.63
2022-12-25T02:49:08.981Z,16.55
2022-12-25T02:52:11.845Z,15.27
2022-12-25T02:55:06.716Z,16.48
2022-12-25T02:57:59.442Z,17.50
2022-12-25T03:00:52.079Z,16.25
2022-12-25T03:03:49.896Z,17.58
2022-12-25T03:06:46.589Z,17.10
2022-12-25T03:09:46.308Z,16.38
2022-12-25T03:12:29.471Z,17.00
2022-12-25T03:15:20.779Z,18.80
2022-12-25T03:17:57.935Z,18.25
2022-12-25T03:20:50.594Z,16.73
2022-12-25T03:23:47.344Z,17.38
2022-12-25T03:26:37.783Z,18.67
2022-12-25T03:29:12.408Z,16.65
2022-12-25T03:31:48.500Z,18.63
2022-12-25T03:34:45.177Z,13.95
2022-12-25T03:37:53.558Z,17.25
2022-12-25T03:40:47.447Z,15.88
2022-12-25T03:43:42.631Z,16.20
2022-12-25T03:46:36.793Z,17.38
2022-12-25T03:49:31.017Z,16.95
2022-12-25T03:52:24.053Z,17.85
2022-12-25T03:55:17.862Z,16.83
2022-12-25T03:58:08.698Z,14.90
2022-12-25T04:00:59.500Z,13.82
2022-12-25T04:03:50.993Z,14.80
2022-12-25T04:06:42.292Z,18.23
2022-12-25T04:09:33.739Z,14.90
2022-12-25T04:12:27.973Z,16.27
2022-12-25T04:15:34.502Z,14.52
2022-12-25T04:18:25.907Z,16.13
2022-12-25T04:21:17.529Z,16.13
2022-12-25T04:24:08.636Z,17.02
2022-12-25T04:27:00.574Z,15.52
2022-12-25T04:29:53.726Z,17.20
2022-12-25T04:32:45.149Z,15.82
2022-12-25T04:35:37.954Z,16.60
2022-12-25T04:38:13.754Z,17.02
2022-12-25T04:40:49.891Z,15.30
2022-12-25T04:43:26.868Z,17.15
2022-12-25T04:46:05.625Z,14.57
2022-12-25T04:48:42.210Z,14.60
2022-12-25T04:51:21.973Z,15.98
2022-12-25T04:53:58.567Z,15.38
2022-12-25T04:56:38.547Z,14.48
2022-12-25T04:59:17.698Z,15.63
2022-12-25T05:01:55.102Z,14.55
2022-12-25T05:04:30.822Z,14.60
2022-12-25T05:07:06.315Z,14.95
2022-12-25T05:09:43.395Z,14.35
2022-12-25T05:12:19.611Z,11.85
2022-12-25T05:14:54.571Z,12.63
2022-12-25T05:17:33.826Z,12.23
2022-12-25T05:20:13.181Z,13.60
2022-12-25T05:22:47.904Z,11.45
2022-12-25T05:25:23.357Z,12.77
2022-12-25T05:27:59.269Z,11.10
2022-12-25T05:30:34.909Z,11.30
2022-12-25T05:33:12.366Z,12.82
2022-12-25T05:35:47.500Z,11.05
2022-12-25T05:38:22.764Z,12.50
2022-12-25T05:40:58.679Z,10.52
2022-12-25T05:43:34.781Z,11.85
2022-12-25T05:46:14.940Z,12.15
2022-12-25T05:48:52.297Z,10.18
2022-12-25T05:51:27.885Z,12.30
2022-12-25T05:54:03.401Z,14.15
2022-12-25T05:56:40.119Z,9.38
2022-12-25T05:59:15.815Z,10.80
2022-12-25T06:01:52.042Z,9.55
2022-12-25T06:04:29.172Z,9.75
2022-12-25T06:07:04.775Z,9.57
2022-12-25T06:09:40.089Z,9.82
2022-12-25T06:12:15.732Z,9.25
2022-12-25T06:14:51.572Z,10.93
2022-12-25T06:17:29.081Z,10.35
2022-12-25T06:20:06.532Z,9.98
2022-12-25T06:22:41.901Z,9.43
2022-12-25T06:25:17.554Z,10.43
2022-12-25T06:27:53.179Z,11.75
2022-12-25T06:30:29.394Z,11.43
2022-12-25T06:33:05.166Z,10.98
2022-12-25T06:35:44.327Z,10.93
2022-12-25T06:38:20.248Z,9.88
2022-12-25T06:40:56.995Z,12.38
2022-12-25T06:43:32.887Z,9.75
2022-12-25T06:46:09.839Z,13.07
2022-12-25T06:48:49.906Z,9.85
2022-12-25T06:51:29.491Z,11.57
2022-12-25T06:54:06.985Z,10.40
2022-12-25T06:56:42.440Z,8.07
2022-12-25T06:59:17.997Z,10.57
2022-12-25T07:01:55.791Z,8.77
2022-12-25T07:04:35.207Z,10.32
2022-12-25T07:07:13.520Z,11.50
2022-12-25T07:09:49.029Z,8.60
2022-12-25T07:12:27.395Z,9.63
2022-12-25T07:15:02.511Z,8.00
2022-12-25T07:17:40.470Z,8.00
2022-12-25T07:20:16.116Z,10.98
2022-12-25T07:22:53.851Z,9.48
2022-12-25T07:25:33.600Z,8.75
2022-12-25T07:28:12.173Z,8.48
2022-12-25T07:30:47.646Z,8.98
2022-12-25T07:33:24.532Z,9.82
2022-12-25T07:36:00.485Z,8.07
2022-12-25T07:38:37.667Z,9.60
2022-12-25T07:41:14.946Z,9.00
2022-12-25T07:43:54.049Z,10.05
2022-12-25T07:46:29.977Z,9.25
2022-12-25T07:49:06.260Z,9.93
2022-12-25T07:51:42.366Z,10.35
2022-12-25T07:54:20.126Z,10.90
2022-12-25T07:56:57.086Z,10.50
2022-12-25T07:59:32.425Z,8.88
2022-12-25T08:02:08.236Z,9.00
2022-12-25T08:04:47.323Z,10.05
2022-12-25T08:07:22.386Z,11.45
2022-12-25T08:09:59.641Z,9.40
2022-12-25T08:12:35.161Z,10.40
2022-12-25T08:15:11.563Z,9.50
2022-12-25T08:17:46.981Z,9.93
2022-12-25T08:20:23.245Z,8.88
2022-12-25T08:22:58.895Z,10.63
2022-12-25T08:25:37.111Z,10.73
2022-12-25T08:28:12.422Z,10.00
2022-12-25T08:30:47.762Z,9.90
2022-12-25T08:33:25.393Z,9.02
2022-12-25T08:36:06.350Z,10.98
2022-12-25T08:38:42.295Z,10.38
2022-12-25T08:41:21.140Z,10.10
2022-12-25T08:43:56.407Z,10.02
2022-12-25T08:46:35.668Z,12.25
2022-12-25T08:49:10.938Z,11.70
2022-12-25T08:51:48.728Z,10.05
2022-12-25T08:54:24.333Z,10.40
2022-12-25T08:57:02.867Z,14.90
2022-12-25T08:59:38.253Z,11.70
2022-12-25T09:02:13.613Z,13.25
2022-12-25T09:04:50.693Z,12.10
2022-12-25T09:07:28.264Z,10.77
2022-12-25T09:10:04.544Z,12.77
2022-12-25T09:12:41.722Z,12.80
2022-12-25T09:15:17.767Z,13.52
2022-12-25T09:17:53.902Z,12.73
2022-12-25T09:20:31.286Z,12.65
2022-12-25T09:23:13.593Z,13.05
2022-12-25T09:25:49.917Z,12.68
2022-12-25T09:28:29.737Z,11.25
2022-12-25T09:31:07.854Z,13.65
2022-12-25T09:33:45.737Z,15.88
2022-12-25T09:36:25.215Z,11.63
2022-12-25T09:39:03.006Z,11.32
2022-12-25T09:41:42.015Z,12.23
2022-12-25T09:44:22.667Z,11.75
2022-12-25T09:47:01.854Z,13.40
2022-12-25T09:49:44.520Z,9.88
2022-12-25T09:52:24.303Z,12.32
2022-12-25T09:55:05.392Z,16.08
2022-12-25T09:57:41.197Z,12.98
2022-12-25T10:00:23.764Z,11.82
2022-12-25T10:03:23.470Z,13.90
2022-12-25T10:06:17.949Z,12.35
2022-12-25T10:09:12.018Z,13.82
2022-12-25T10:11:52.947Z,11.73
2022-12-25T10:14:31.202Z,12.55
2022-12-25T10:17:13.429Z,10.57
2022-12-25T10:19:53.218Z,13.02
2022-12-25T10:22:39.804Z,11.02
2022-12-25T10:25:21.540Z,11.00
2022-12-25T10:28:02.823Z,11.57
2022-12-25T10:30:41.193Z,12.15
2022-12-25T10:33:18.095Z,12.70
2022-12-25T10:35:52.735Z,12.48
2022-12-25T10:38:28.065Z,12.40
2022-12-25T10:41:11.184Z,9.98
2022-12-25T10:43:49.188Z,12.70
2022-12-25T10:46:24.492Z,14.98
2022-12-25T10:49:01.929Z,12.65
2022-12-25T10:51:37.921Z,13.68
2022-12-25T10:54:24.258Z,11.68
2022-12-25T10:56:59.793Z,13.10
2022-12-25T10:59:36.266Z,10.25
2022-12-25T11:02:20.426Z,11.75
2022-12-25T11:04:57.594Z,12.48
2022-12-25T11:07:32.345Z,13.45
2022-12-25T11:10:08.201Z,14.10
2022-12-25T11:12:47.378Z,12.77
2022-12-25T11:15:36.832Z,13.90
2022-12-25T11:18:22.973Z,13.52
2022-12-25T11:21:00.400Z,14.13
2022-12-25T11:23:36.647Z,17.52
2022-12-25T11:26:13.003Z,10.63
2022-12-25T11:28:48.303Z,13.20
2022-12-25T11:31:23.200Z,14.60
2022-12-25T11:33:59.659Z,13.13
2022-12-25T11:36:38.169Z,15.07
2022-12-25T11:39:26.237Z,12.93
2022-12-25T11:42:07.212Z,17.48
2022-12-25T11:44:49.101Z,12.05
2022-12-25T11:47:26.550Z,12.95
2022-12-25T11:50:02.815Z,14.00
2022-12-25T11:52:42.159Z,15.95
2022-12-25T11:55:22.517Z,15.25
2022-12-25T11:58:00.893Z,14.15
2022-12-25T12:00:36.016Z,16.10
2022-12-25T12:03:15.284Z,11.27
2022-12-25T12:05:51.194Z,13.55
2022-12-25T12:08:27.753Z,12.15
2022-12-25T12:11:17.421Z,15.68
2022-12-25T12:14:13.484Z,14.02
2022-12-25T12:16:48.257Z,15.27
2022-12-25T12:19:30.213Z,14.25
2022-12-25T12:22:05.508Z,14.07
2022-12-25T12:24:44.366Z,13.98
2022-12-25T12:27:24.802Z,15.82
2022-12-25T12:30:01.045Z,13.98
2022-12-25T12:32:40.444Z,14.35
2022-12-25T12:35:19.522Z,16.25
2022-12-25T12:37:56.306Z,14.88
2022-12-25T12:40:38.207Z,17.45
2022-12-25T12:43:27.160Z,17.00
2022-12-25T12:46:03.901Z,20.88
2022-12-25T12:48:43.775Z,14.80
2022-12-25T12:51:19.606Z,14.57
2022-12-25T12:53:54.121Z,17.00
2022-12-25T12:56:31.169Z,16.85
2022-12-25T12:59:05.927Z,16.15
2022-12-25T13:01:50.771Z,14.73
2022-12-25T13:04:41.959Z,17.10
2022-12-25T13:07:20.505Z,17.65
2022-12-25T13:10:03.489Z,18.35
2022-12-25T13:12:40.077Z,17.42
2022-12-25T13:15:18.015Z,18.52
2022-12-25T13:17:53.209Z,19.80
2022-12-25T13:20:29.953Z,19.33
2022-12-25T13:23:04.421Z,16.38
2022-12-25T13:25:38.884Z,15.82
2022-12-25T13:28:19.333Z,15.30
2022-12-25T13:30:54.709Z,16.30
2022-12-25T13:33:29.138Z,17.00
2022-12-25T13:36:03.460Z,13.35
2022-12-25T13:38:38.693Z,18.02
2022-12-25T13:41:29.899Z,17.58
2022-12-25T13:44:06.579Z,17.85
2022-12-25T13:46:41.705Z,14.40
2022-12-25T13:49:19.981Z,15.07
2022-12-25T13:51:54.800Z,15.55
2022-12-25T13:54:29.692Z,17.30
2022-12-25T13:57:04.187Z,15.15
2022-12-25T13:59:43.071Z,14.55
2022-12-25T14:02:23.203Z,14.32
2022-12-25T14:04:58.079Z,14.82
2022-12-25T14:07:32.528Z,16.08
2022-12-25T14:10:08.217Z,15.70
2022-12-25T14:12:43.391Z,14.45
2022-12-25T14:15:21.765Z,12.35
2022-12-25T14:17:57.101Z,13.70
2022-12-25T14:20:34.436Z,17.00
2022-12-25T14:23:10.192Z,17.55
2022-12-25T14:25:47.083Z,12.93
2022-12-25T14:28:24.059Z,13.18
2022-12-25T14:31:01.500Z,13.63
2022-12-25T14:33:40.539Z,14.50
2022-12-25T14:36:16.563Z,14.43
2022-12-25T14:39:00.262Z,13.13
2022-12-25T14:41:40.353Z,19.83
2022-12-25T14:44:29.181Z,16.92
2022-12-25T14:47:17.811Z,14.35
2022-12-25T14:49:55.440Z,11.25
2022-12-25T14:52:32.070Z,15.02
2022-12-25T14:55:07.357Z,14.25
2022-12-25T14:57:44.559Z,13.80
2022-12-25T15:00:27.005Z,13.93
2022-12-25T15:03:03.101Z,15.45
2022-12-25T15:05:41.982Z,14.77
2022-12-25T15:08:29.791Z,11.73
2022-12-25T15:11:04.379Z,12.68
2022-12-25T15:13:39.245Z,10.57
2022-12-25T15:16:19.423Z,11.95
2022-12-25T15:18:54.287Z,14.55
2022-12-25T15:21:31.880Z,12.68
2022-12-25T15:24:06.879Z,16.63
2022-12-25T15:26:41.562Z,13.20
2022-12-25T15:29:16.229Z,15.63
2022-12-25T15:31:50.897Z,15.82
2022-12-25T15:34:26.928Z,12.57
2022-12-25T15:37:04.587Z,12.88
2022-12-25T15:39:39.162Z,12.75
2022-12-25T15:42:17.854Z,12.32
2022-12-25T15:44:56.049Z,11.85
2022-12-25T15:47:31.161Z,11.20
2022-12-25T15:50:05.899Z,10.27
2022-12-25T15:52:42.997Z,10.88
2022-12-25T15:55:18.512Z,16.27
2022-12-25T15:57:56.236Z,11.50
2022-12-25T16:00:30.941Z,9.63
2022-12-25T16:03:05.930Z,12.10
2022-12-25T16:05:41.294Z,12.73
2022-12-25T16:08:19.027Z,15.18
2022-12-25T16:10:53.316Z,14.63
2022-12-25T16:13:27.569Z,11.55
2022-12-25T16:16:03.262Z,9.85
2022-12-25T16:18:41.906Z,12.32
2022-12-25T16:21:22.242Z,11.68
2022-12-25T16:23:59.269Z,15.27
2022-12-25T16:26:35.170Z,13.70
2022-12-25T16:29:10.057Z,14.18
2022-12-25T16:31:45.368Z,16.00
2022-12-25T16:34:19.773Z,17.80
2022-12-25T16:36:54.859Z,20.10
2022-12-25T16:39:32.646Z,20.85
2022-12-25T16:42:07.279Z,18.08
2022-12-25T16:44:42.064Z,20.35
2022-12-25T16:47:17.659Z,18.70
2022-12-25T16:49:52.406Z,14.13
2022-12-25T16:52:27.263Z,15.73
2022-12-25T16:55:04.086Z,18.90
2022-12-25T16:57:39.638Z,16.27
2022-12-25T17:00:15.457Z,13.73
2022-12-25T17:02:50.206Z,17.30
2022-12-25T17:05:24.619Z,16.65
2022-12-25T17:08:01.307Z,20.02
2022-12-25T17:10:38.394Z,21.52
2022-12-25T17:13:12.753Z,18.55
2022-12-25T17:15:50.646Z,20.10
2022-12-25T17:18:25.288Z,17.40
2022-12-25T17:20:59.839Z,21.30
2022-12-25T17:23:34.246Z,20.80
2022-12-25T17:26:11.416Z,20.95
2022-12-25T17:28:46.250Z,19.92
2022-12-25T17:31:20.566Z,21.33
2022-12-25T17:33:55.048Z,21.60
2022-12-25T17:36:29.501Z,15.40
2022-12-25T17:39:05.281Z,17.40
2022-12-25T17:41:42.161Z,16.20
2022-12-25T17:44:16.557Z,20.80
2022-12-25T17:46:51.499Z,15.50
2022-12-25T17:49:27.322Z,16.75
2022-12-25T17:52:01.938Z,15.95
2022-12-25T17:54:36.897Z,15.10
2022-12-25T17:57:13.762Z,20.08
2022-12-25T17:59:49.114Z,17.90
2022-12-25T18:02:23.731Z,16.98
2022-12-25T18:04:58.630Z,20.52
2022-12-25T18:07:33.554Z,16.83
2022-12-25T18:10:09.190Z,21.08
2022-12-25T18:12:47.959Z,21.83
2022-12-25T18:15:22.601Z,25.13
2022-12-25T18:17:57.311Z,22.38
2022-12-25T18:20:39.635Z,24.52
2022-12-25T18:23:15.054Z,21.20
2022-12-25T18:25:49.809Z,20.77
2022-12-25T18:28:27.315Z,27.30
2022-12-25T18:31:02.878Z,22.13
2022-12-25T18:33:37.569Z,22.13
2022-12-25T18:36:12.650Z,24.92
2022-12-25T18:38:47.497Z,20.48
2022-12-25T18:41:23.029Z,22.45
2022-12-25T18:44:00.501Z,25.50
2022-12-25T18:46:34.930Z,28.67
2022-12-25T18:49:10.403Z,24.85
2022-12-25T18:51:45.899Z,28.48
2022-12-25T18:54:20.943Z,25.85
2022-12-25T18:56:55.936Z,25.63
2022-12-25T18:59:33.096Z,23.98
2022-12-25T19:02:08.566Z,26.75
2022-12-25T19:04:42.936Z,24.65
2022-12-25T19:07:17.571Z,26.27
2022-12-25T19:09:52.477Z,25.30
2022-12-25T19:12:27.954Z,24.45
2022-12-25T19:15:05.663Z,25.95
2022-12-25T19:17:40.069Z,25.85
2022-12-25T19:20:14.951Z,27.70
2022-12-25T19:22:50.532Z,24.48
2022-12-25T19:25:24.981Z,26.77
2022-12-25T19:28:02.303Z,29.67
2022-12-25T19:30:39.310Z,27.20
2022-12-25T19:33:18.014Z,29.45
2022-12-25T19:35:52.581Z,29.33
2022-12-25T19:38:27.535Z,28.10
2022-12-25T19:41:05.246Z,31.55
2022-12-25T19:43:42.044Z,34.78
2022-12-25T19:46:20.389Z,33.25
2022-12-25T19:48:55.362Z,33.85
2022-12-25T19:51:30.995Z,34.83
2022-12-25T19:54:09.000Z,38.05
2022-12-25T19:56:43.316Z,31.50
2022-12-25T19:59:19.088Z,33.95
2022-12-25T20:01:56.161Z,32.45
2022-12-25T20:04:31.404Z,34.42
2022-12-25T20:07:05.672Z,37.15
2022-12-25T20:09:39.963Z,32.63
2022-12-25T20:12:16.424Z,31.60
2022-12-25T20:14:52.529Z,30.70
2022-12-25T20:17:29.414Z,32.60
2022-12-25T20:20:03.737Z,35.92
2022-12-25T20:22:37.971Z,34.85
2022-12-25T20:25:13.743Z,35.20
2022-12-25T20:27:47.964Z,33.67
2022-12-25T20:30:23.684Z,33.53
2022-12-25T20:33:06.971Z,35.10
2022-12-25T20:35:42.357Z,32.00
2022-12-25T20:38:17.143Z,29.02
2022-12-25T20:41:25.164Z,28.98
2022-12-25T20:43:47.339Z,31.70
2022-12-25T20:46:23.063Z,29.55
2022-12-25T20:49:00.518Z,28.60
2022-12-25T20:51:35.187Z,34.20
2022-12-25T20:54:11.398Z,33.45
2022-12-25T20:56:46.850Z,30.10
2022-12-25T20:59:21.793Z,29.17
2022-12-25T21:01:57.318Z,31.85
2022-12-25T21:04:34.788Z,29.02
2022-12-25T21:07:10.156Z,34.30
2022-12-25T21:09:45.014Z,33.30
2022-12-25T21:12:19.966Z,35.42
2022-12-25T21:14:54.589Z,34.05
2022-12-25T21:17:30.154Z,35.45
2022-12-25T21:20:07.437Z,36.20
2022-12-25T21:22:42.249Z,30.73
2022-12-25T21:25:16.978Z,32.35
2022-12-25T21:27:52.551Z,36.05
2022-12-25T21:30:27.363Z,32.63
2022-12-25T21:33:18.029Z,32.78
2022-12-25T21:35:55.173Z,29.00
2022-12-25T21:38:30.715Z,30.13
2022-12-25T21:41:08.418Z,28.90
2022-12-25T21:43:44.751Z,36.65
2022-12-25T21:46:19.846Z,32.92
2022-12-25T21:48:55.648Z,34.00
2022-12-25T21:51:49.334Z,30.95
2022-12-25T21:54:24.404Z,28.00
2022-12-25T21:56:59.095Z,28.52
2022-12-25T21:59:34.306Z,27.02
2022-12-25T22:02:13.018Z,27.90
2022-12-25T22:04:48.756Z,28.92
2022-12-25T22:07:25.288Z,29.02
2022-12-25T22:10:02.004Z,25.83
2022-12-25T22:12:55.811Z,23.58
2022-12-25T22:15:49.596Z,24.23
2022-12-25T22:18:43.203Z,26.42
2022-12-25T22:21:26.314Z,25.25
2022-12-25T22:24:02.660Z,26.88
2022-12-25T22:26:38.475Z,23.95
2022-12-25T22:29:12.893Z,24.73
2022-12-25T22:31:48.670Z,22.52
2022-12-25T22:34:23.149Z,19.92
2022-12-25T22:36:58.331Z,21.10
2022-12-25T22:39:35.960Z,19.75
2022-12-25T22:42:11.621Z,22.73
2022-12-25T22:44:46.128Z,19.63
2022-12-25T22:47:21.016Z,17.67
2022-12-25T22:49:56.219Z,13.63
2022-12-25T22:52:32.669Z,16.67
2022-12-25T22:55:10.951Z,16.10
2022-12-25T22:57:49.064Z,15.38
2022-12-25T23:00:23.848Z,10.90
2022-12-25T23:02:58.888Z,13.30
2022-12-25T23:05:33.245Z,13.43
2022-12-25T23:08:08.290Z,14.18
2022-12-25T23:10:44.504Z,11.20
2022-12-25T23:13:36.266Z,15.07
2022-12-25T23:16:10.932Z,12.27
2022-12-25T23:19:04.390Z,11.75
2022-12-25T23:21:55.969Z,11.73
2022-12-25T23:24:48.658Z,13.55
2022-12-25T23:27:27.284Z,11.27
2022-12-25T23:30:02.350Z,12.15
2022-12-25T23:32:37.065Z,14.50
2022-12-25T23:35:14.727Z,11.05
2022-12-25T23:37:54.760Z,12.10
2022-12-25T23:40:30.378Z,13.05
2022-12-25T23:43:08.124Z,10.38
2022-12-25T23:45:44.261Z,12.98
2022-12-25T23:48:21.086Z,11.52
2022-12-25T23:50:57.559Z,12.07
2022-12-25T23:53:35.108Z,9.13
2022-12-25T23:56:15.177Z,13.88
2022-12-25T23:58:53.610Z,10.02
